Time;durP1;ratioP1;P1;durP2;ratioP2;P2;SDS_P1;SDS_P2;PMS_P1;PMS_P2;Temp;Humidity;BMP_temperature;BMP_pressure;BME280_temperature;BME280_humidity;BME280_pressure;Samples;Min_cycle;Max_cycle;Signal;HPM_P1;HPM_P2
2022/01/03 00:00:28;;;;;;;7.40;5.60;;;;;;;8.73;92.41;98463.02;105123;1274;61282;-69
2022/01/03 00:03:10;;;;;;;5.70;4.80;;;;;;;8.75;92.39;98461.83;105039;1274;75320;-69
2022/01/03 00:05:37;;;;;;;5.40;4.20;;;;;;;8.79;92.48;98462.63;105260;1274;69277;-70
2022/01/03 00:08:05;;;;;;;6.60;5.10;;;;;;;8.83;92.58;98466.77;104958;1274;74270;-69
2022/01/03 00:10:33;;;;;;;7.10;5.40;;;;;;;8.86;92.57;98459.12;105021;1273;61235;-69
2022/01/03 00:13:02;;;;;;;7.10;5.00;;;;;;;8.91;92.47;98452.23;105008;1274;61183;-70
2022/01/03 00:15:29;;;;;;;6.60;5.10;;;;;;;8.95;92.47;98448.22;104995;1274;75198;-70
2022/01/03 00:17:56;;;;;;;5.70;4.90;;;;;;;8.99;92.20;98439.48;104976;1274;69326;-69
2022/01/03 00:20:23;;;;;;;6.40;4.90;;;;;;;8.99;92.51;98428.44;104892;1274;73430;-69
2022/01/03 00:22:59;;;;;;;5.90;4.90;;;;;;;8.99;92.45;98429.73;104838;1275;61266;-70
2022/01/03 00:25:26;;;;;;;7.30;5.10;;;;;;;8.97;92.56;98433.54;105127;1274;61279;-69
2022/01/03 00:28:21;;;;;;;7.80;4.90;;;;;;;8.97;92.60;98450.95;104982;1274;75756;-69
2022/01/03 00:30:53;;;;;;;6.50;4.50;;;;;;;8.96;92.69;98445.33;104924;1274;69526;-69
2022/01/03 00:33:20;;;;;;;7.80;6.10;;;;;;;8.95;92.77;98448.43;104877;1274;74467;-69
2022/01/03 00:35:53;;;;;;;7.00;4.90;;;;;;;8.95;92.53;98452.81;104590;1277;61337;-69
2022/01/03 00:38:21;;;;;;;5.70;4.80;;;;;;;8.97;92.73;98445.60;104958;1275;61260;-68
2022/01/03 00:40:49;;;;;;;6.00;5.20;;;;;;;8.98;92.72;98435.98;105140;1274;76279;-69
2022/01/03 00:43:16;;;;;;;5.20;4.70;;;;;;;8.98;92.82;98436.69;104854;1274;69352;-69
2022/01/03 00:45:43;;;;;;;8.70;5.20;;;;;;;8.97;93.07;98425.80;104806;1277;73756;-69
2022/01/03 00:48:11;;;;;;;6.70;4.90;;;;;;;8.94;92.92;98421.88;104798;1274;61377;-70
2022/01/03 00:50:38;;;;;;;5.80;4.60;;;;;;;8.96;93.13;98413.85;104915;1274;61224;-71
2022/01/03 00:53:06;;;;;;;7.80;5.40;;;;;;;8.95;92.86;98416.89;105010;1274;76322;-70
2022/01/03 00:55:33;;;;;;;7.00;4.30;;;;;;;8.96;92.96;98411.89;104998;1274;67343;-70
2022/01/03 00:57:59;;;;;;;10.30;6.00;;;;;;;8.95;92.95;98407.83;104997;1274;73990;-70
2022/01/03 01:00:31;;;;;;;5.70;4.90;;;;;;;8.95;93.02;98406.41;104967;1274;61197;-67
2022/01/03 01:03:10;;;;;;;5.90;4.20;;;;;;;8.95;93.28;98405.21;105018;1274;61269;-70
2022/01/03 01:05:43;;;;;;;6.60;5.00;;;;;;;8.93;93.27;98402.86;105032;1274;76354;-69
2022/01/03 01:08:11;;;;;;;7.00;4.80;;;;;;;8.93;93.02;98406.06;104992;1274;69240;-70
2022/01/03 01:10:40;;;;;;;8.40;5.00;;;;;;;8.93;93.05;98414.02;104884;1274;130389;-69
2022/01/03 01:13:10;;;;;;;5.60;4.60;;;;;;;8.94;93.33;98410.05;104661;1274;61799;-68
2022/01/03 01:15:37;;;;;;;7.00;4.90;;;;;;;8.92;93.12;98408.54;105317;1274;61300;-70
2022/01/03 01:18:04;;;;;;;5.90;4.70;;;;;;;8.94;92.98;98404.23;105035;1274;75362;-72
2022/01/03 01:20:35;;;;;;;6.20;4.70;;;;;;;8.96;93.07;98403.84;105001;1274;68750;-69
2022/01/03 01:23:02;;;;;;;;;;;;;;;8.97;93.06;98408.41;105040;1274;72168;-69
2022/01/03 01:27:56;;;;;;;6.10;5.10;;;;;;;8.97;92.94;98401.33;104990;1274;62041;-70
2022/01/03 01:30:27;;;;;;;7.20;4.60;;;;;;;8.97;93.05;98392.30;105012;1274;75248;-69
2022/01/03 01:32:59;;;;;;;;;;;;;;;8.97;92.98;98386.48;105113;1274;70675;-69
2022/01/03 01:35:35;;;;;;;6.00;4.60;;;;;;;8.97;93.15;98374.42;104987;1274;73433;-69
2022/01/03 01:38:03;;;;;;;5.80;5.30;;;;;;;8.95;93.07;98380.89;104998;1274;61305;-70
2022/01/03 01:40:30;;;;;;;6.30;5.20;;;;;;;8.95;93.16;98383.93;105047;1274;61382;-70
2022/01/03 01:42:57;;;;;;;6.50;5.00;;;;;;;8.94;92.97;98374.61;105056;1274;75704;-70
2022/01/03 01:45:27;;;;;;;5.50;4.70;;;;;;;8.95;93.14;98371.20;105206;1272;68857;-70
2022/01/03 01:47:57;;;;;;;6.00;4.90;;;;;;;8.95;92.88;98374.52;105174;1274;73304;-71
2022/01/03 01:50:28;;;;;;;6.50;4.60;;;;;;;8.97;93.01;98369.77;105161;1274;61324;-69
2022/01/03 01:52:56;;;;;;;7.60;4.40;;;;;;;8.98;92.99;98370.98;104868;1274;61237;-69
2022/01/03 01:55:23;;;;;;;6.10;4.80;;;;;;;8.97;93.11;98362.86;105104;1271;75220;-69
2022/01/03 01:58:17;;;;;;;7.70;4.70;;;;;;;8.95;93.11;98364.77;105108;1271;68770;-69
2022/01/03 02:00:48;;;;;;;5.40;4.00;;;;;;;8.94;93.23;98366.27;105113;1271;73431;-69
2022/01/03 02:03:16;;;;;;;5.90;4.20;;;;;;;8.93;93.33;98367.42;105051;1271;61435;-69
2022/01/03 02:05:49;;;;;;;6.50;4.50;;;;;;;8.91;93.26;98364.39;105081;1271;61265;-67
2022/01/03 02:08:32;;;;;;;5.30;4.20;;;;;;;8.91;93.33;98356.77;105051;1271;75250;-69
2022/01/03 02:11:16;;;;;;;5.40;3.70;;;;;;;8.91;93.42;98354.30;105089;1271;69757;-69
2022/01/03 02:13:44;;;;;;;6.50;4.40;;;;;;;8.90;93.28;98350.08;105087;1271;74294;-69
2022/01/03 02:16:11;;;;;;;5.00;4.50;;;;;;;8.90;93.26;98344.98;105021;1271;61383;-67
2022/01/03 02:18:37;;;;;;;5.90;4.30;;;;;;;8.89;93.27;98334.79;104930;1271;61408;-70
2022/01/03 02:21:05;;;;;;;5.30;4.00;;;;;;;8.86;93.43;98328.73;105101;1271;75453;-71
2022/01/03 02:23:31;;;;;;;4.20;3.80;;;;;;;8.83;93.36;98323.48;105083;1271;69453;-70
2022/01/03 02:25:58;;;;;;;7.30;4.80;;;;;;;8.79;93.33;98315.09;105048;1271;74166;-70
2022/01/03 02:28:24;;;;;;;4.30;3.80;;;;;;;8.74;93.47;98310.98;105101;1271;61280;-70
2022/01/03 02:30:52;;;;;;;5.00;4.10;;;;;;;8.71;93.56;98308.55;105119;1271;61275;-69
2022/01/03 02:33:18;;;;;;;6.20;4.00;;;;;;;8.67;93.72;98307.63;105104;1271;75186;-70
2022/01/03 02:35:46;;;;;;;4.70;3.70;;;;;;;8.62;93.76;98304.05;105110;1271;69411;-69
2022/01/03 02:38:14;;;;;;;5.00;4.50;;;;;;;8.58;93.74;98288.57;105083;1271;74446;-68
2022/01/03 02:40:40;;;;;;;8.10;4.60;;;;;;;8.54;93.92;98285.47;105134;1271;61407;-71
2022/01/03 02:43:07;;;;;;;6.50;4.50;;;;;;;8.51;94.06;98287.66;104962;1274;61262;-69
2022/01/03 02:45:34;;;;;;;5.10;3.60;;;;;;;8.47;94.14;98294.99;105059;1271;75650;-69
2022/01/03 02:48:04;;;;;;;5.10;4.10;;;;;;;8.47;94.16;98302.47;105035;1271;69250;-69
2022/01/03 02:50:32;;;;;;;6.00;4.00;;;;;;;8.45;94.36;98300.99;105088;1271;73778;-69
2022/01/03 02:52:59;;;;;;;5.70;3.90;;;;;;;8.46;94.38;98302.54;105100;1271;61202;-69
2022/01/03 02:55:26;;;;;;;5.30;3.70;;;;;;;8.48;94.48;98300.44;104902;1271;61744;-70
2022/01/03 02:57:58;;;;;;;5.20;3.60;;;;;;;8.51;94.45;98302.55;105099;1271;76685;-68
2022/01/03 03:00:48;;;;;;;5.20;3.70;;;;;;;8.53;94.52;98297.27;104949;1271;69100;-69
2022/01/03 03:03:16;;;;;;;4.90;3.60;;;;;;;8.57;94.51;98293.23;105182;1271;72953;-68
2022/01/03 03:05:43;;;;;;;5.50;3.60;;;;;;;8.61;94.51;98295.27;105123;1271;61387;-68
2022/01/03 03:08:12;;;;;;;5.90;3.80;;;;;;;8.64;94.47;98290.45;105238;1271;61386;-69
2022/01/03 03:10:39;;;;;;;4.50;3.60;;;;;;;8.68;94.38;98286.29;105093;1271;75061;-69
2022/01/03 03:13:06;;;;;;;4.10;3.10;;;;;;;8.73;94.47;98281.52;105087;1271;70290;-69
2022/01/03 03:15:34;;;;;;;4.80;3.60;;;;;;;8.75;94.01;98275.65;105085;1271;73337;-69
2022/01/03 03:18:01;;;;;;;7.90;3.50;;;;;;;8.81;94.21;98285.58;105129;1271;61287;-70
2022/01/03 03:20:30;;;;;;;5.20;3.90;;;;;;;8.85;94.04;98292.02;105035;1271;62094;-69
2022/01/03 03:22:59;;;;;;;4.00;3.60;;;;;;;8.86;94.27;98283.96;105133;1271;76262;-69
2022/01/03 03:25:34;;;;;;;5.40;3.30;;;;;;;8.87;94.05;98280.70;105123;1271;69111;-69
2022/01/03 03:28:05;;;;;;;5.30;3.20;;;;;;;8.89;94.03;98282.48;104798;1277;74181;-69
2022/01/03 03:30:35;;;;;;;4.90;3.50;;;;;;;8.91;93.83;98283.21;105070;1271;61266;-69
2022/01/03 03:33:07;;;;;;;6.80;3.60;;;;;;;8.93;94.04;98285.39;105077;1271;61179;-69
2022/01/03 03:35:35;;;;;;;4.90;3.20;;;;;;;8.94;93.76;98281.75;105165;1271;74595;-70
2022/01/03 03:38:02;;;;;;;4.50;3.50;;;;;;;8.96;93.81;98275.96;105371;1271;70209;-71
2022/01/03 03:40:29;;;;;;;3.60;3.10;;;;;;;8.98;93.81;98273.71;105142;1271;72195;-69
2022/01/03 03:42:55;;;;;;;4.90;3.40;;;;;;;8.99;93.73;98270.42;105049;1271;61272;-69
2022/01/03 03:45:22;;;;;;;4.00;3.30;;;;;;;9.00;93.72;98266.48;105022;1271;61386;-69
2022/01/03 03:47:51;;;;;;;4.40;3.10;;;;;;;8.99;93.76;98258.20;105180;1271;75249;-71
2022/01/03 03:50:21;;;;;;;5.30;3.30;;;;;;;8.99;93.50;98252.50;105060;1271;68998;-70
2022/01/03 03:52:47;;;;;;;4.00;3.20;;;;;;;8.99;93.62;98252.55;105046;1271;74511;-70
2022/01/03 03:55:14;;;;;;;5.10;3.20;;;;;;;8.98;93.39;98256.17;104964;1274;61293;-70
2022/01/03 03:57:41;;;;;;;4.30;2.80;;;;;;;8.99;93.41;98259.10;105012;1273;61165;-69
2022/01/03 04:00:11;;;;;;;4.30;2.80;;;;;;;9.00;93.32;98256.75;105014;1274;74915;-70
2022/01/03 04:02:38;;;;;;;4.70;3.20;;;;;;;9.00;93.27;98257.77;105140;1273;69568;-69
2022/01/03 04:05:05;;;;;;;4.10;3.50;;;;;;;9.03;93.29;98256.88;104998;1272;61321;-70
2022/01/03 04:07:31;;;;;;;4.20;2.70;;;;;;;9.05;93.22;98252.98;104736;1274;61358;-70
2022/01/03 04:09:58;;;;;;;3.20;2.90;;;;;;;9.07;93.07;98250.91;105017;1274;61335;-68
2022/01/03 04:12:24;;;;;;;6.10;2.90;;;;;;;9.09;92.96;98248.84;105014;1272;61234;-69
2022/01/03 04:14:51;;;;;;;4.10;3.10;;;;;;;9.11;93.16;98247.98;104989;1272;61305;-69
2022/01/03 04:17:17;;;;;;;3.90;2.60;;;;;;;9.11;92.93;98244.41;104924;1274;61402;-68
2022/01/03 04:19:44;;;;;;;2.60;2.40;;;;;;;9.12;92.92;98239.05;104997;1274;61370;-69
2022/01/03 04:22:10;;;;;;;3.50;3.00;;;;;;;9.12;92.81;98227.84;105026;1274;61294;-69
2022/01/03 04:24:37;;;;;;;4.90;3.10;;;;;;;9.14;92.82;98229.66;105000;1272;61285;-69
2022/01/03 04:27:04;;;;;;;5.00;3.00;;;;;;;9.14;92.70;98226.61;105025;1274;70186;-69
2022/01/03 04:29:31;;;;;;;3.60;3.10;;;;;;;9.15;92.91;98220.75;105012;1274;72660;-68
2022/01/03 04:31:57;;;;;;;3.00;2.20;;;;;;;9.15;92.38;98216.30;105009;1274;61309;-69
2022/01/03 04:34:25;;;;;;;3.20;2.20;;;;;;;9.17;92.55;98218.95;104920;1274;61474;-66
2022/01/03 04:36:51;;;;;;;3.60;2.30;;;;;;;9.19;92.17;98224.11;105001;1274;76405;-67
2022/01/03 04:39:18;;;;;;;3.20;2.50;;;;;;;9.21;92.18;98228.60;104887;1274;69469;-69
2022/01/03 04:41:44;;;;;;;5.30;2.90;;;;;;;9.22;92.49;98222.31;104937;1274;74185;-69
2022/01/03 04:44:11;;;;;;;4.30;2.60;;;;;;;9.22;92.16;98218.98;105019;1274;61311;-70
2022/01/03 04:46:38;;;;;;;2.60;2.10;;;;;;;9.22;92.22;98216.31;105022;1274;61410;-70
2022/01/03 04:49:07;;;;;;;3.60;2.20;;;;;;;9.21;92.07;98208.36;105022;1274;75103;-69
2022/01/03 04:51:34;;;;;;;2.70;1.90;;;;;;;9.24;91.79;98200.02;105106;1274;70419;-70
2022/01/03 04:54:01;;;;;;;2.80;2.10;;;;;;;9.26;92.05;98194.80;105057;1274;73232;-70
2022/01/03 04:56:28;;;;;;;3.70;2.60;;;;;;;9.26;91.90;98193.12;104995;1271;61310;-69
2022/01/03 04:58:56;;;;;;;2.80;2.40;;;;;;;9.26;91.86;98190.48;105072;1271;62615;-69
2022/01/03 05:01:23;;;;;;;3.50;2.30;;;;;;;9.26;91.89;98179.86;105113;1271;76464;-70
2022/01/03 05:03:50;;;;;;;2.70;1.80;;;;;;;9.26;92.30;98178.62;105131;1271;69211;-68
2022/01/03 05:06:19;;;;;;;3.00;2.10;;;;;;;9.23;92.51;98172.45;105117;1271;74335;-69
2022/01/03 05:08:46;;;;;;;2.80;1.80;;;;;;;9.20;93.00;98178.16;105077;1271;61274;-70
2022/01/03 05:11:13;;;;;;;3.60;2.20;;;;;;;9.16;93.19;98172.26;105091;1271;61297;-69
2022/01/03 05:13:40;;;;;;;3.30;2.00;;;;;;;9.12;93.45;98175.61;104886;1272;74229;-70
2022/01/03 05:16:08;;;;;;;3.20;2.00;;;;;;;9.09;93.57;98179.52;105055;1271;69363;-70
2022/01/03 05:18:35;;;;;;;3.40;2.20;;;;;;;9.06;94.10;98173.90;104905;1271;74141;-69
2022/01/03 05:21:02;;;;;;;3.90;2.20;;;;;;;9.01;94.41;98175.33;104905;1271;61483;-67
2022/01/03 05:23:29;;;;;;;2.60;2.20;;;;;;;8.95;94.76;98172.37;104757;1271;61281;-67
2022/01/03 05:25:55;;;;;;;3.70;2.20;;;;;;;8.91;94.78;98170.02;104653;1271;61293;-69
2022/01/03 05:28:22;;;;;;;4.40;2.30;;;;;;;8.89;94.78;98161.66;105020;1271;61255;-69
2022/01/03 05:30:48;;;;;;;2.90;2.00;;;;;;;8.88;94.97;98155.75;104920;1272;73283;-67
2022/01/03 05:33:15;;;;;;;4.00;3.20;;;;;;;8.87;94.96;98156.55;105088;1271;61229;-70
2022/01/03 05:35:41;;;;;;;3.40;2.30;;;;;;;8.87;94.97;98152.10;105001;1271;61218;-69
2022/01/03 05:38:08;;;;;;;3.80;2.50;;;;;;;8.88;94.90;98155.92;104925;1271;61300;-70
2022/01/03 05:40:34;;;;;;;4.20;2.20;;;;;;;8.90;94.86;98152.23;105144;1271;70095;-69
2022/01/03 05:43:01;;;;;;;4.00;2.40;;;;;;;8.93;94.57;98152.05;105198;1271;72438;-70
2022/01/03 05:45:28;;;;;;;5.20;2.90;;;;;;;8.96;94.66;98145.58;105286;1271;61413;-70
2022/01/03 05:47:55;;;;;;;6.70;2.50;;;;;;;8.98;94.69;98137.43;105265;1271;61277;-69
2022/01/03 05:50:22;;;;;;;4.40;2.30;;;;;;;9.01;94.34;98128.55;105187;1271;73894;-70
2022/01/03 05:52:48;;;;;;;4.80;2.50;;;;;;;9.04;94.33;98131.70;105046;1271;69198;-70
2022/01/03 05:55:16;;;;;;;4.70;2.60;;;;;;;9.07;94.12;98127.94;105067;1271;73063;-69
2022/01/03 05:57:42;;;;;;;4.10;2.90;;;;;;;9.09;94.01;98128.50;104887;1271;61257;-69
2022/01/03 06:00:12;;;;;;;4.10;2.40;;;;;;;9.10;94.03;98128.41;105072;1271;61134;-69
2022/01/03 06:02:41;;;;;;;;;;;;;;;9.10;93.96;98125.05;105001;1271;74791;-69
2022/01/03 06:05:17;;;;;;;4.00;1.80;;;;;;;9.10;93.87;98124.84;105038;1271;69227;-69
2022/01/03 06:07:44;;;;;;;3.00;2.00;;;;;;;9.12;93.79;98130.91;105065;1271;73615;-70
2022/01/03 06:10:17;;;;;;;4.30;2.40;;;;;;;9.14;93.71;98134.16;105106;1271;61358;-69
2022/01/03 06:12:45;;;;;;;3.60;2.10;;;;;;;9.15;93.81;98136.36;105073;1271;61576;-70
2022/01/03 06:15:14;;;;;;;4.80;2.40;;;;;;;9.17;93.60;98131.75;105044;1271;75201;-70
2022/01/03 06:17:46;;;;;;;3.90;2.20;;;;;;;9.20;93.58;98137.73;105262;1271;68705;-69
2022/01/03 06:20:13;;;;;;;3.80;2.10;;;;;;;9.22;93.42;98141.14;105086;1269;74358;-70
2022/01/03 06:22:40;;;;;;;3.50;1.80;;;;;;;9.24;93.75;98144.17;104987;1271;61338;-70
2022/01/03 06:25:09;;;;;;;4.20;2.30;;;;;;;9.22;94.47;98150.17;105074;1271;61304;-69
2022/01/03 06:27:38;;;;;;;4.80;2.90;;;;;;;9.14;95.66;98154.19;105048;1271;76130;-70
2022/01/03 06:30:06;;;;;;;6.70;4.70;;;;;;;9.02;96.02;98148.52;105076;1271;69131;-70
2022/01/03 06:32:33;;;;;;;7.90;5.20;;;;;;;8.90;96.44;98134.89;104867;1271;74366;-70
2022/01/03 06:35:00;;;;;;;4.10;2.90;;;;;;;8.81;96.84;98149.02;105065;1271;61240;-69
2022/01/03 06:37:27;;;;;;;7.10;5.20;;;;;;;8.74;97.16;98154.42;105102;1271;61342;-69
2022/01/03 06:39:53;;;;;;;4.40;3.70;;;;;;;8.70;97.27;98143.23;104896;1272;61354;-69
2022/01/03 06:42:20;;;;;;;4.30;3.00;;;;;;;8.68;97.43;98147.30;105086;1270;61587;-70
2022/01/03 06:44:48;;;;;;;4.00;2.30;;;;;;;8.65;97.49;98149.80;104849;1271;61361;-69
2022/01/03 06:47:17;;;;;;;2.90;2.60;;;;;;;8.62;97.59;98149.80;105061;1271;61368;-70
2022/01/03 06:49:44;;;;;;;3.60;2.90;;;;;;;8.61;97.76;98153.84;105125;1271;61361;-70
2022/01/03 06:52:11;;;;;;;4.00;2.40;;;;;;;8.59;97.84;98152.70;105315;1271;75644;-70
2022/01/03 06:54:38;;;;;;;5.10;2.70;;;;;;;8.60;97.91;98157.40;105172;1271;70289;-71
2022/01/03 06:57:06;;;;;;;4.00;2.30;;;;;;;8.61;97.93;98155.27;105237;1271;73710;-69
2022/01/03 06:59:32;;;;;;;6.50;3.10;;;;;;;8.62;97.87;98153.06;105136;1271;61352;-69
2022/01/03 07:01:59;;;;;;;3.70;2.40;;;;;;;8.65;97.81;98154.05;105068;1271;62311;-69
2022/01/03 07:04:26;;;;;;;8.30;3.10;;;;;;;8.69;97.77;98159.25;105089;1271;75842;-69
2022/01/03 07:06:53;;;;;;;6.40;2.90;;;;;;;8.72;97.65;98157.94;105084;1271;69564;-70
2022/01/03 07:09:20;;;;;;;6.00;2.50;;;;;;;8.75;97.49;98161.82;105072;1271;72583;-70
2022/01/03 07:11:46;;;;;;;6.90;3.10;;;;;;;8.76;97.30;98162.61;105108;1271;61282;-70
2022/01/03 07:19:46;;;;;;;3.70;2.30;;;;;;;8.88;97.19;98182.61;105102;1271;69369;-69
2022/01/03 07:22:14;;;;;;;5.90;2.10;;;;;;;8.90;97.26;98197.76;105111;1271;73117;-70
2022/01/03 07:24:41;;;;;;;5.10;2.30;;;;;;;8.87;97.61;98185.20;105251;1271;61409;-69
2022/01/03 07:27:11;;;;;;;5.10;2.30;;;;;;;8.83;97.88;98189.21;105050;1270;61851;-68
2022/01/03 07:29:39;;;;;;;4.60;2.60;;;;;;;8.81;98.07;98189.90;105083;1271;75362;-70
2022/01/03 07:32:06;;;;;;;4.20;2.20;;;;;;;8.77;98.27;98194.61;105099;1271;69143;-69
2022/01/03 07:34:33;;;;;;;5.10;2.70;;;;;;;8.73;98.33;98200.38;105091;1271;73160;-69
2022/01/03 07:37:00;;;;;;;3.30;2.30;;;;;;;8.72;98.21;98197.98;105043;1271;61326;-69
2022/01/03 07:39:30;;;;;;;3.00;2.10;;;;;;;8.74;98.27;98204.54;104918;1271;61253;-69
2022/01/03 07:41:58;;;;;;;6.20;3.10;;;;;;;8.79;97.87;98216.41;105102;1271;75191;-70
2022/01/03 07:44:25;;;;;;;3.20;2.40;;;;;;;8.83;97.65;98226.95;105176;1271;68808;-69
2022/01/03 07:46:51;;;;;;;4.80;2.30;;;;;;;8.86;97.79;98222.48;105063;1271;61250;-69
2022/01/03 07:49:18;;;;;;;3.80;2.60;;;;;;;8.88;97.35;98231.21;105103;1271;61307;-68
2022/01/03 07:51:44;;;;;;;3.20;2.00;;;;;;;8.90;97.41;98231.79;105091;1271;61450;-70
2022/01/03 07:54:11;;;;;;;4.10;2.50;;;;;;;8.92;97.18;98237.11;105125;1271;61367;-70
2022/01/03 07:56:39;;;;;;;4.70;2.20;;;;;;;8.94;96.90;98240.66;105098;1271;61398;-69
2022/01/03 07:59:06;;;;;;;4.10;2.20;;;;;;;8.97;96.69;98239.91;105137;1271;73297;-70
2022/01/03 08:01:33;;;;;;;3.90;2.30;;;;;;;9.00;96.49;98246.77;105062;1271;61348;-69
2022/01/03 08:04:00;;;;;;;4.00;2.40;;;;;;;9.01;96.31;98250.98;105042;1271;61339;-70
2022/01/03 08:06:27;;;;;;;4.40;2.60;;;;;;;9.02;96.14;98254.64;104894;1271;61457;-69
2022/01/03 08:08:54;;;;;;;6.20;2.80;;;;;;;9.04;95.95;98256.45;105117;1271;69374;-69
2022/01/03 08:11:21;;;;;;;4.30;3.00;;;;;;;9.05;96.03;98249.32;105087;1271;73247;-71
2022/01/03 08:13:47;;;;;;;4.10;2.90;;;;;;;9.06;95.91;98257.73;104872;1271;61282;-70
2022/01/03 08:16:14;;;;;;;4.50;2.70;;;;;;;9.07;95.78;98259.77;105083;1271;61428;-71
2022/01/03 08:18:40;;;;;;;5.50;3.40;;;;;;;9.06;95.47;98263.73;104928;1271;61557;-72
2022/01/03 08:21:07;;;;;;;6.30;3.70;;;;;;;9.04;95.69;98264.23;105064;1271;61412;-70
2022/01/03 08:23:33;;;;;;;5.70;4.00;;;;;;;9.02;95.76;98268.42;104935;1271;61301;-70
2022/01/03 08:26:00;;;;;;;7.70;4.30;;;;;;;9.02;95.66;98261.90;105110;1271;61290;-71
2022/01/03 08:28:26;;;;;;;8.50;3.90;;;;;;;9.04;95.65;98261.63;105066;1271;61270;-71
2022/01/03 08:30:53;;;;;;;10.10;4.20;;;;;;;9.04;95.61;98261.21;105103;1271;61391;-68
2022/01/03 08:33:19;;;;;;;5.50;2.90;;;;;;;9.05;95.52;98260.98;105126;1271;70557;-70
2022/01/03 08:35:46;;;;;;;4.50;2.80;;;;;;;9.05;95.22;98265.41;105084;1271;61291;-71
2022/01/03 08:38:13;;;;;;;4.70;3.00;;;;;;;9.05;95.37;98263.80;105052;1271;61474;-70
2022/01/03 08:40:39;;;;;;;6.00;2.60;;;;;;;9.06;95.28;98264.24;105091;1270;61295;-71
2022/01/03 08:43:06;;;;;;;5.60;3.10;;;;;;;9.07;95.30;98263.83;105100;1271;61301;-71
2022/01/03 08:45:32;;;;;;;4.80;2.60;;;;;;;9.07;95.03;98267.08;104915;1271;69912;-70
2022/01/03 08:47:59;;;;;;;5.00;2.80;;;;;;;9.06;95.21;98269.91;105079;1270;73658;-70
2022/01/03 08:50:25;;;;;;;3.30;2.10;;;;;;;9.11;95.10;98272.96;104937;1271;61445;-71
2022/01/03 08:52:52;;;;;;;3.90;2.30;;;;;;;9.11;95.03;98275.25;105093;1271;61272;-71
2022/01/03 08:55:22;;;;;;;3.90;2.60;;;;;;;9.09;94.74;98276.48;105082;1271;61632;-71
2022/01/03 08:57:51;;;;;;;5.50;2.60;;;;;;;9.09;94.74;98286.89;105068;1270;68655;-71
2022/01/03 09:00:19;;;;;;;7.10;2.60;;;;;;;9.11;94.88;98290.48;105168;1271;73214;-70
2022/01/03 09:02:46;;;;;;;3.20;2.00;;;;;;;9.12;94.69;98283.85;105101;1271;61357;-70
2022/01/03 09:05:13;;;;;;;3.90;2.30;;;;;;;9.15;94.47;98285.57;105120;1271;61246;-70
2022/01/03 09:07:39;;;;;;;3.50;2.20;;;;;;;9.22;94.52;98286.51;105100;1271;75273;-71
2022/01/03 09:10:06;;;;;;;13.60;8.10;;;;;;;9.33;94.55;98286.80;105036;1271;69207;-70
2022/01/03 09:12:33;;;;;;;39.90;17.20;;;;;;;9.44;94.51;98284.69;105044;1271;73429;-69
2022/01/03 09:15:01;;;;;;;27.90;13.30;;;;;;;9.57;94.37;98284.80;105027;1271;61460;-69
2022/01/03 09:17:27;;;;;;;15.10;9.30;;;;;;;9.63;94.41;98286.71;105068;1271;61967;-72
2022/01/03 09:19:54;;;;;;;6.50;4.70;;;;;;;9.63;94.21;98286.34;105099;1271;61266;-72
2022/01/03 09:22:26;;;;;;;14.30;12.10;;;;;;;9.63;94.11;98282.04;104925;1271;70077;-71
2022/01/03 09:30:14;;;;;;;9.30;6.20;;;;;;;9.71;94.25;98274.00;105107;1270;61884;-71
2022/01/03 09:32:41;;;;;;;12.90;9.80;;;;;;;9.73;93.88;98270.89;105115;1270;75115;-70
2022/01/03 09:35:09;;;;;;;13.30;8.40;;;;;;;9.72;93.90;98270.19;105120;1271;69578;-71
2022/01/03 09:37:36;;;;;;;7.90;4.90;;;;;;;9.69;94.08;98275.57;105095;1271;74183;-71
2022/01/03 09:40:05;;;;;;;8.70;5.50;;;;;;;9.64;94.39;98270.10;105095;1271;61317;-71
2022/01/03 09:42:34;;;;;;;4.40;3.10;;;;;;;9.59;94.28;98263.88;105179;1271;62059;-70
2022/01/03 09:45:08;;;;;;;8.90;4.60;;;;;;;9.58;94.31;98262.95;105103;1271;76152;-70
2022/01/03 09:47:38;;;;;;;7.50;5.00;;;;;;;9.58;94.32;98256.87;104955;1271;69326;-71
2022/01/03 09:50:06;;;;;;;12.80;6.50;;;;;;;9.58;94.34;98258.31;105160;1271;73320;-70
2022/01/03 09:52:33;;;;;;;10.80;5.70;;;;;;;9.60;94.29;98258.48;105115;1271;61338;-71
2022/01/03 09:55:01;;;;;;;8.00;3.90;;;;;;;9.59;94.38;98255.02;105094;1271;61823;-71
2022/01/03 09:57:30;;;;;;;5.40;3.10;;;;;;;9.55;94.53;98256.05;105162;1270;76430;-71
2022/01/03 09:59:59;;;;;;;5.00;2.60;;;;;;;9.51;94.35;98256.52;105096;1271;68685;-71
2022/01/03 10:02:27;;;;;;;17.40;8.00;;;;;;;9.51;94.70;98259.58;105104;1271;74508;-70
2022/01/03 10:04:55;;;;;;;8.10;4.60;;;;;;;9.48;94.87;98258.89;105190;1271;61397;-70
2022/01/03 10:07:22;;;;;;;6.90;3.90;;;;;;;9.44;95.16;98274.79;105125;1271;61737;-70
2022/01/03 10:09:49;;;;;;;7.90;4.40;;;;;;;9.44;95.53;98265.23;105155;1271;75407;-70
2022/01/03 10:12:17;;;;;;;7.90;4.50;;;;;;;9.48;95.57;98264.18;105130;1271;70356;-71
2022/01/03 10:14:44;;;;;;;7.10;4.40;;;;;;;9.49;95.62;98259.16;104999;1271;71596;-71
2022/01/03 10:17:11;;;;;;;11.60;7.00;;;;;;;9.45;95.94;98262.11;105068;1271;61174;-71
2022/01/03 10:19:59;;;;;;;9.50;6.10;;;;;;;9.40;96.05;98257.30;105173;1271;61179;-71
2022/01/03 10:22:30;;;;;;;7.80;4.20;;;;;;;9.34;96.37;98266.45;105118;1271;75609;-71
2022/01/03 10:24:58;;;;;;;8.80;5.10;;;;;;;9.30;96.45;98269.09;105180;1271;70189;-71
2022/01/03 10:27:42;;;;;;;5.70;2.60;;;;;;;9.30;96.52;98275.28;105217;1271;73180;-71
2022/01/03 10:30:10;;;;;;;5.10;3.60;;;;;;;9.35;96.36;98263.54;105120;1271;61378;-70
2022/01/03 10:32:36;;;;;;;3.60;2.50;;;;;;;9.46;96.34;98258.15;105124;1271;61336;-71
2022/01/03 10:35:17;;;;;;;3.10;2.10;;;;;;;9.59;96.02;98253.64;105223;1271;75871;-71
2022/01/03 10:37:44;;;;;;;3.60;1.90;;;;;;;9.80;95.67;98252.58;105648;1268;69724;-71
2022/01/03 10:40:28;;;;;;;5.50;2.20;;;;;;;9.94;95.44;98248.48;105532;1271;72543;-71
2022/01/03 10:43:15;;;;;;;3.50;2.50;;;;;;;9.97;95.33;98239.95;105261;1271;61470;-70
2022/01/03 10:45:42;;;;;;;4.50;2.30;;;;;;;9.94;95.28;98233.98;105230;1271;61889;-71
2022/01/03 10:48:28;;;;;;;5.40;3.40;;;;;;;9.82;95.32;98245.14;105174;1271;75315;-73
2022/01/03 10:50:56;;;;;;;3.40;2.40;;;;;;;9.64;95.87;98259.45;105181;1271;70309;-70
2022/01/03 10:53:43;;;;;;;3.80;2.30;;;;;;;9.41;96.66;98276.77;105203;1271;74333;-71
2022/01/03 10:56:24;;;;;;;4.60;3.00;;;;;;;9.15;98.18;98310.20;105040;1273;61775;-71
2022/01/03 10:58:52;;;;;;;4.30;3.00;;;;;;;8.92;99.14;98300.34;105068;1273;61393;-71
2022/01/03 11:01:24;;;;;;;7.30;3.90;;;;;;;8.77;99.85;98287.95;104905;1274;72330;-69
2022/01/03 11:03:51;;;;;;;5.90;3.60;;;;;;;8.67;100.00;98267.08;105129;1274;70251;-69
2022/01/03 11:11:51;;;;;;;3.30;2.00;;;;;;;8.30;99.68;98280.59;105094;1273;61239;-69
2022/01/03 11:14:39;;;;;;;4.30;2.20;;;;;;;8.30;99.57;98273.34;105112;1274;74719;-70
2022/01/03 11:17:26;;;;;;;3.90;2.30;;;;;;;8.24;99.67;98274.59;105191;1274;67516;-70
2022/01/03 11:19:57;;;;;;;3.50;1.80;;;;;;;8.25;99.01;98265.70;105061;1274;73598;-70
2022/01/03 11:22:39;;;;;;;4.50;1.70;;;;;;;8.33;98.09;98258.21;105100;1272;61284;-71
2022/01/03 11:25:07;;;;;;;3.50;1.20;;;;;;;8.33;97.36;98255.77;105108;1274;62074;-70
2022/01/03 11:27:38;;;;;;;3.30;1.20;;;;;;;8.25;96.50;98259.54;105132;1274;75148;-71
2022/01/03 11:30:07;;;;;;;2.90;1.00;;;;;;;8.20;95.99;98264.65;105212;1274;67558;-70
2022/01/03 11:32:38;;;;;;;3.00;1.30;;;;;;;8.20;95.83;98258.45;104954;1274;74480;-71
2022/01/03 11:35:06;;;;;;;3.60;0.90;;;;;;;8.21;95.61;98256.30;105083;1274;61356;-70
2022/01/03 11:37:36;;;;;;;3.00;1.20;;;;;;;8.17;95.55;98253.56;105138;1274;62009;-71
2022/01/03 11:40:05;;;;;;;3.00;1.20;;;;;;;8.08;95.45;98251.47;104947;1272;75220;-70
2022/01/03 11:42:33;;;;;;;3.20;1.40;;;;;;;8.02;95.74;98251.03;105141;1272;69562;-70
2022/01/03 11:45:00;;;;;;;3.90;1.50;;;;;;;7.97;95.67;98255.77;104983;1274;73510;-71
2022/01/03 11:47:27;;;;;;;3.60;1.60;;;;;;;8.00;95.35;98255.91;105087;1273;62694;-70
2022/01/03 11:49:54;;;;;;;4.40;1.80;;;;;;;8.10;95.74;98257.53;105145;1274;61701;-70
2022/01/03 11:52:22;;;;;;;5.20;2.00;;;;;;;8.22;95.67;98259.00;105032;1274;61365;-70
2022/01/03 11:54:52;;;;;;;6.50;3.30;;;;;;;8.32;95.39;98257.94;105107;1273;69941;-70
2022/01/03 11:57:39;;;;;;;6.40;3.20;;;;;;;8.44;96.02;98255.79;105163;1271;73920;-71
2022/01/03 12:05:53;;;;;;;3.30;2.20;;;;;;;8.64;95.17;98252.75;105222;1268;75470;-71